Time;durP1;ratioP1;P1;durP2;ratioP2;P2;SDS_P1;SDS_P2;PMS_P1;PMS_P2;Temp;Humidity;BMP_temperature;BMP_pressure;BME280_temperature;BME280_humidity;BME280_pressure;Samples;Min_cycle;Max_cycle;Signal;HPM_P1;HPM_P2
2021/04/19 00:00:10;;;;;;;19.75;10.07;;;8.80;99.90;;;;;;4940086;29;20056;-87
2021/04/19 00:02:37;;;;;;;19.40;8.90;;;8.70;99.90;;;;;;4940172;29;20060;-86
2021/04/19 00:05:05;;;;;;;18.17;8.93;;;8.70;99.90;;;;;;4940008;29;20055;-87
2021/04/19 00:07:32;;;;;;;14.43;8.48;;;8.60;99.90;;;;;;4939835;29;20069;-87
2021/04/19 00:09:59;;;;;;;17.45;10.25;;;8.50;99.90;;;;;;4939806;29;20376;-87
2021/04/19 00:12:25;;;;;;;31.73;14.05;;;8.40;99.90;;;;;;4939635;29;20049;-87
2021/04/19 00:14:52;;;;;;;24.27;10.27;;;8.30;99.90;;;;;;4939928;29;20485;-87
2021/04/19 00:17:19;;;;;;;23.95;10.73;;;8.20;99.90;;;;;;4939572;29;20449;-89
2021/04/19 00:19:45;;;;;;;16.23;8.95;;;8.20;99.90;;;;;;4939530;29;20062;-89
2021/04/19 00:22:12;;;;;;;16.73;8.82;;;8.20;99.90;;;;;;4939701;29;20067;-89
2021/04/19 00:24:40;;;;;;;21.40;9.25;;;8.10;99.90;;;;;;4939690;29;20052;-89
2021/04/19 00:27:07;;;;;;;15.20;8.40;;;8.10;99.90;;;;;;4939382;29;20058;-89
2021/04/19 00:29:34;;;;;;;19.60;9.07;;;8.10;99.90;;;;;;4939290;29;20051;-88
2021/04/19 00:32:00;;;;;;;25.80;12.88;;;8.00;99.90;;;;;;4939605;29;20048;-89
2021/04/19 00:34:27;;;;;;;18.40;9.43;;;8.00;99.90;;;;;;4939228;29;20051;-89
2021/04/19 00:36:54;;;;;;;29.27;11.30;;;8.00;99.90;;;;;;4939487;29;20044;-89
2021/04/19 00:39:20;;;;;;;22.30;10.25;;;7.90;99.90;;;;;;4939154;29;20051;-89
2021/04/19 00:41:48;;;;;;;24.10;11.80;;;7.80;99.90;;;;;;4939136;29;20056;-89
2021/04/19 00:44:14;;;;;;;24.80;10.82;;;7.70;99.90;;;;;;4939349;29;20055;-89
2021/04/19 00:46:41;;;;;;;22.95;11.27;;;7.70;99.90;;;;;;4938889;29;20055;-89
2021/04/19 00:49:08;;;;;;;21.67;10.60;;;7.60;99.90;;;;;;4939299;29;20056;-89
2021/04/19 00:51:34;;;;;;;19.55;10.63;;;7.60;99.90;;;;;;4939521;29;20052;-88
2021/04/19 00:54:01;;;;;;;21.23;9.93;;;7.50;99.90;;;;;;4938881;29;20063;-89
2021/04/19 00:56:27;;;;;;;21.75;10.65;;;7.50;99.90;;;;;;4939015;29;20054;-89
2021/04/19 00:58:55;;;;;;;20.30;9.13;;;7.40;99.90;;;;;;4938544;29;20051;-89
2021/04/19 01:01:22;;;;;;;20.02;8.43;;;7.40;99.90;;;;;;4938796;29;20472;-88
2021/04/19 01:03:48;;;;;;;18.42;8.57;;;7.40;99.90;;;;;;4938803;29;20471;-88
2021/04/19 01:06:15;;;;;;;20.48;10.68;;;7.40;99.90;;;;;;4938709;29;20055;-89
2021/04/19 01:08:41;;;;;;;20.08;9.25;;;7.40;99.90;;;;;;4938649;29;20055;-89
2021/04/19 01:11:08;;;;;;;21.20;9.00;;;7.40;99.90;;;;;;4938552;29;20058;-89
2021/04/19 01:13:35;;;;;;;22.30;9.50;;;7.30;99.90;;;;;;4938843;29;20055;-89
2021/04/19 01:16:02;;;;;;;24.85;10.13;;;7.30;99.90;;;;;;4938770;29;20043;-89
2021/04/19 01:18:29;;;;;;;20.17;9.90;;;7.30;99.90;;;;;;4938746;29;20062;-89
2021/04/19 01:20:56;;;;;;;21.50;9.07;;;7.20;99.90;;;;;;4938291;29;20568;-89
2021/04/19 01:23:23;;;;;;;18.23;9.02;;;7.20;99.90;;;;;;4938648;29;20086;-89
2021/04/19 01:25:49;;;;;;;17.83;10.50;;;7.10;99.90;;;;;;4938205;29;20052;-89
2021/04/19 01:28:18;;;;;;;18.95;9.43;;;7.10;99.90;;;;;;4938593;29;20436;-89
2021/04/19 01:30:45;;;;;;;20.10;8.20;;;7.00;99.90;;;;;;4938299;29;20051;-89
2021/04/19 01:33:12;;;;;;;21.05;10.13;;;7.00;99.90;;;;;;4938160;29;20114;-88
2021/04/19 01:35:39;;;;;;;17.73;8.82;;;7.00;99.90;;;;;;4938291;29;20402;-89
2021/04/19 01:38:07;;;;;;;15.05;7.50;;;6.90;99.90;;;;;;4938161;29;20069;-87
2021/04/19 01:40:33;;;;;;;15.57;8.10;;;6.90;99.90;;;;;;4938315;29;20061;-88
2021/04/19 01:43:00;;;;;;;17.27;8.02;;;6.90;99.90;;;;;;4938042;29;20083;-88
2021/04/19 01:45:26;;;;;;;17.95;8.95;;;6.80;99.90;;;;;;4938240;29;20056;-88
2021/04/19 01:47:53;;;;;;;19.42;7.35;;;6.70;99.90;;;;;;4937907;29;20044;-88
2021/04/19 01:50:21;;;;;;;17.27;7.93;;;6.70;99.90;;;;;;4937988;29;20047;-88
2021/04/19 01:52:47;;;;;;;16.75;7.80;;;6.70;99.90;;;;;;4938033;29;20114;-86
2021/04/19 01:55:16;;;;;;;17.05;7.78;;;6.70;99.90;;;;;;4937855;29;20051;-85
2021/04/19 01:57:44;;;;;;;19.40;8.30;;;6.60;99.90;;;;;;4937923;29;20500;-86
2021/04/19 02:00:11;;;;;;;18.77;8.05;;;6.60;99.90;;;;;;4937981;29;20077;-86
2021/04/19 02:02:44;;;;;;;20.20;8.48;;;6.60;99.90;;;;;;4937908;29;20364;-87
2021/04/19 02:05:12;;;;;;;20.05;9.00;;;6.60;99.90;;;;;;4937725;29;20488;-86
2021/04/19 02:07:48;;;;;;;14.02;7.55;;;6.60;99.90;;;;;;4937903;29;20055;-86
2021/04/19 02:10:21;;;;;;;14.80;7.60;;;6.60;99.90;;;;;;4937734;29;20055;-86
2021/04/19 02:12:52;;;;;;;17.00;8.75;;;6.50;99.90;;;;;;4937976;29;20047;-85
2021/04/19 02:15:20;;;;;;;16.20;8.75;;;6.50;99.90;;;;;;4938021;29;20047;-86
2021/04/19 02:17:49;;;;;;;15.25;7.28;;;6.50;99.90;;;;;;4937799;29;20054;-85
2021/04/19 02:20:19;;;;;;;15.93;7.50;;;6.40;99.90;;;;;;4938514;29;20059;-85
2021/04/19 02:22:48;;;;;;;16.00;6.90;;;6.40;99.90;;;;;;4938147;29;20144;-85
2021/04/19 02:25:17;;;;;;;10.63;6.75;;;6.40;99.90;;;;;;4938319;29;20105;-85
2021/04/19 02:27:45;;;;;;;16.58;7.72;;;6.30;99.90;;;;;;4939699;29;20066;-85
2021/04/19 02:30:14;;;;;;;19.02;7.07;;;6.30;99.90;;;;;;4942142;29;20048;-84
2021/04/19 02:32:43;;;;;;;16.58;7.47;;;6.20;99.90;;;;;;4941266;29;20052;-84
2021/04/19 02:35:12;;;;;;;15.07;8.15;;;6.20;99.90;;;;;;4942607;29;20123;-84
2021/04/19 02:37:39;;;;;;;17.98;7.75;;;6.20;99.90;;;;;;4943421;29;20117;-85
2021/04/19 02:40:07;;;;;;;19.98;9.45;;;6.10;99.90;;;;;;4944417;29;20051;-84
2021/04/19 02:42:35;;;;;;;19.80;8.43;;;6.20;99.90;;;;;;4948277;29;20056;-85
2021/04/19 02:45:02;;;;;;;14.93;7.90;;;6.10;99.90;;;;;;4945845;29;20051;-84
2021/04/19 02:47:28;;;;;;;32.17;8.07;;;6.10;99.90;;;;;;4950589;29;20054;-83
2021/04/19 02:49:55;;;;;;;15.73;6.57;;;6.00;99.90;;;;;;4951508;29;20118;-84
2021/04/19 02:52:21;;;;;;;16.75;6.57;;;6.00;99.90;;;;;;4954333;29;20061;-84
2021/04/19 02:54:48;;;;;;;18.15;5.68;;;5.90;99.90;;;;;;4953561;29;20138;-84
2021/04/19 02:57:20;;;;;;;14.15;6.15;;;5.90;99.90;;;;;;4956149;29;20063;-84
2021/04/19 02:59:48;;;;;;;16.75;6.70;;;5.90;99.90;;;;;;4957183;29;20516;-84
2021/04/19 03:02:14;;;;;;;17.02;7.78;;;5.90;99.90;;;;;;4959003;28;20068;-84
2021/04/19 03:15:07;;;;;;;13.38;5.50;;;5.70;99.90;;;;;;5927122;23;20759;-84
2021/04/19 07:01:21;;;;;;;11.20;5.03;;;6.60;99.90;;;;;;5764069;23;782498;-82
2021/04/19 07:03:50;;;;;;;10.10;5.97;;;6.60;99.90;;;;;;4959768;29;20114;-83
2021/04/19 07:06:17;;;;;;;16.60;5.57;;;6.70;99.90;;;;;;4952331;29;20044;-82
2021/04/19 07:08:47;;;;;;;11.52;4.45;;;6.80;99.90;;;;;;4945339;29;20066;-83
2021/04/19 07:11:13;;;;;;;10.00;5.10;;;7.00;99.90;;;;;;4942350;29;20056;-84
2021/04/19 07:13:40;;;;;;;12.38;5.78;;;7.10;99.90;;;;;;4940804;29;20366;-86
2021/04/19 07:16:06;;;;;;;17.73;5.70;;;7.70;99.90;;;;;;4941147;29;20051;-88
2021/04/19 07:18:34;;;;;;;17.50;7.10;;;9.40;99.90;;;;;;4940535;29;20106;-87
2021/04/19 07:21:01;;;;;;;9.43;4.53;;;11.60;99.90;;;;;;4940399;29;20048;-86
2021/04/19 07:23:28;;;;;;;10.23;4.95;;;14.40;99.90;;;;;;4940646;29;20507;-84
2021/04/19 07:25:54;;;;;;;12.00;4.43;;;17.50;93.30;;;;;;4940468;29;20051;-84
2021/04/19 07:28:21;;;;;;;9.73;4.80;;;20.00;66.30;;;;;;4940741;29;20051;-84
2021/04/19 07:30:57;;;;;;;12.65;5.18;;;22.00;59.60;;;;;;4940322;29;20062;-84
2021/04/19 07:33:24;;;;;;;12.40;4.90;;;23.80;57.00;;;;;;4940789;29;20056;-84
2021/04/19 07:35:52;;;;;;;12.65;5.38;;;25.30;49.30;;;;;;4940330;29;20407;-83
2021/04/19 07:38:30;;;;;;;8.82;5.13;;;26.30;52.80;;;;;;4940549;29;20047;-84
2021/04/19 07:40:57;;;;;;;10.45;5.10;;;27.00;46.30;;;;;;4940252;29;20055;-86
2021/04/19 07:43:24;;;;;;;9.65;5.15;;;27.80;49.00;;;;;;4940189;29;20146;-85
2021/04/19 07:46:01;;;;;;;61.30;9.35;;;28.40;45.20;;;;;;4940258;29;20083;-84
2021/04/19 07:48:34;;;;;;;10.50;5.95;;;28.70;40.40;;;;;;4940057;29;20052;-85
2021/04/19 07:51:23;;;;;;;8.50;5.65;;;27.50;40.90;;;;;;4940240;29;20047;-86
2021/04/19 07:53:49;;;;;;;6.80;4.68;;;25.00;40.30;;;;;;4940211;29;20122;-85
2021/04/19 07:56:16;;;;;;;10.45;4.95;;;21.80;43.10;;;;;;4940035;29;20048;-84
2021/04/19 07:58:43;;;;;;;10.38;5.35;;;19.40;47.30;;;;;;4939896;29;20373;-84
2021/04/19 08:01:10;;;;;;;8.95;4.70;;;17.60;51.00;;;;;;4940251;29;20060;-84
2021/04/19 08:03:37;;;;;;;9.25;4.57;;;16.20;51.80;;;;;;4940600;29;20051;-84
2021/04/19 08:06:16;;;;;;;15.18;6.22;;;14.30;55.40;;;;;;4940244;29;20065;-83
2021/04/19 08:08:42;;;;;;;15.30;6.05;;;14.10;55.80;;;;;;4938641;29;20051;-84
2021/04/19 08:11:10;;;;;;;9.98;4.45;;;12.90;56.80;;;;;;4939549;29;20591;-83
2021/04/19 08:13:37;;;;;;;8.75;4.45;;;12.90;57.40;;;;;;4940155;29;20057;-85
2021/04/19 08:16:12;;;;;;;8.10;4.80;;;12.20;59.00;;;;;;4939605;29;20051;-85
2021/04/19 08:18:39;;;;;;;10.55;4.65;;;12.20;59.60;;;;;;4939464;29;20106;-85
2021/04/19 08:21:07;;;;;;;10.60;5.82;;;12.00;59.40;;;;;;4939695;29;20051;-85
2021/04/19 08:23:37;;;;;;;11.40;4.47;;;11.80;59.40;;;;;;4939438;29;20114;-86
2021/04/19 08:26:04;;;;;;;7.53;3.88;;;11.60;59.50;;;;;;4939320;29;20450;-86
2021/04/19 08:28:31;;;;;;;8.90;4.43;;;11.60;59.70;;;;;;4938843;29;20101;-86
2021/04/19 08:31:00;;;;;;;9.00;4.15;;;11.50;61.50;;;;;;4938865;29;20071;-85
2021/04/19 08:33:27;;;;;;;12.02;5.40;;;11.40;61.70;;;;;;4939701;29;20130;-86
2021/04/19 08:35:53;;;;;;;7.93;4.13;;;11.30;61.50;;;;;;4939324;29;20051;-86
2021/04/19 08:38:21;;;;;;;8.82;4.93;;;11.30;61.70;;;;;;4939318;29;20380;-85
2021/04/19 08:40:49;;;;;;;10.02;4.13;;;11.30;61.20;;;;;;4939211;29;20135;-86
2021/04/19 08:43:18;;;;;;;16.85;5.97;;;11.20;61.30;;;;;;4939443;29;20062;-87
2021/04/19 08:45:45;;;;;;;10.70;4.68;;;11.20;61.40;;;;;;4939234;29;20059;-87
2021/04/19 08:48:12;;;;;;;12.98;4.68;;;11.20;62.40;;;;;;4939206;29;20051;-85
2021/04/19 08:50:39;;;;;;;15.32;5.55;;;11.20;62.80;;;;;;4939132;29;20059;-87
2021/04/19 08:53:07;;;;;;;8.80;4.90;;;11.20;62.80;;;;;;4938994;29;20053;-86
2021/04/19 08:55:34;;;;;;;13.18;5.65;;;11.20;62.30;;;;;;4938915;29;20056;-87
2021/04/19 08:58:05;;;;;;;10.35;4.30;;;11.20;62.60;;;;;;4939070;29;20069;-86
2021/04/19 09:00:32;;;;;;;9.95;5.35;;;11.20;62.30;;;;;;4938961;29;20118;-87
2021/04/19 09:02:59;;;;;;;12.77;4.72;;;11.20;62.60;;;;;;4938645;28;20059;-86
2021/04/19 09:05:25;;;;;;;14.68;6.13;;;11.20;62.60;;;;;;4938814;29;20047;-87
2021/04/19 09:08:01;;;;;;;10.00;5.25;;;11.20;65.10;;;;;;4938170;29;20066;-86
2021/04/19 09:10:28;;;;;;;11.57;5.72;;;11.30;63.30;;;;;;4938562;29;20172;-86
2021/04/19 09:12:55;;;;;;;12.32;7.03;;;11.30;63.10;;;;;;4936994;29;20393;-86
2021/04/19 09:15:29;;;;;;;13.10;5.60;;;11.30;63.20;;;;;;4938018;29;20059;-90
2021/04/19 09:18:07;;;;;;;11.30;5.80;;;11.30;64.30;;;;;;4938598;29;20043;-85
2021/04/19 09:20:49;;;;;;;17.80;6.20;;;11.30;63.70;;;;;;4938256;29;20055;-85
2021/04/19 09:23:17;;;;;;;12.15;5.93;;;11.40;63.50;;;;;;4936734;29;20099;-85
2021/04/19 09:25:44;;;;;;;11.13;5.60;;;11.40;64.10;;;;;;4938371;29;20056;-84
2021/04/19 09:28:11;;;;;;;13.32;5.75;;;11.40;64.10;;;;;;4938555;29;20055;-85
2021/04/19 09:30:44;;;;;;;11.13;5.90;;;11.40;63.70;;;;;;4938104;29;20051;-85
2021/04/19 09:33:28;;;;;;;10.98;5.60;;;11.50;63.60;;;;;;4938288;29;20056;-85
2021/04/19 09:35:55;;;;;;;13.00;6.15;;;11.50;63.40;;;;;;4930554;29;20398;-85
2021/04/19 09:38:52;;;;;;;13.05;6.05;;;11.50;64.00;;;;;;4919104;29;20056;-85
2021/04/19 09:41:21;;;;;;;12.98;5.95;;;11.60;63.80;;;;;;4919129;29;20466;-85
2021/04/19 09:43:51;;;;;;;11.02;6.03;;;11.60;65.20;;;;;;4919114;29;20461;-85
2021/04/19 09:46:36;;;;;;;13.65;5.30;;;11.60;65.50;;;;;;4918951;29;20056;-85
2021/04/19 09:49:04;;;;;;;15.57;6.38;;;11.60;63.30;;;;;;4919019;29;20062;-85
2021/04/19 09:51:33;;;;;;;12.77;5.30;;;11.50;65.20;;;;;;4919101;29;20048;-85
2021/04/19 09:54:03;;;;;;;15.70;6.38;;;11.60;63.90;;;;;;4918943;29;20110;-85
2021/04/19 09:56:32;;;;;;;11.70;5.90;;;11.70;64.20;;;;;;4919132;29;20052;-85
2021/04/19 09:58:59;;;;;;;13.40;6.10;;;11.70;63.40;;;;;;4919057;29;20062;-85
2021/04/19 10:01:27;;;;;;;10.93;5.20;;;11.70;63.00;;;;;;4918666;29;20060;-85
2021/04/19 10:03:54;;;;;;;10.60;5.60;;;11.60;64.60;;;;;;4918805;29;20052;-85
2021/04/19 10:06:25;;;;;;;9.23;5.03;;;11.70;63.60;;;;;;4918916;29;20062;-85
2021/04/19 10:08:52;;;;;;;13.00;5.63;;;11.80;63.10;;;;;;4919056;29;20067;-85
2021/04/19 10:11:23;;;;;;;14.13;5.90;;;11.80;62.90;;;;;;4918928;29;20059;-85
2021/04/19 10:13:50;;;;;;;13.15;6.13;;;11.90;61.60;;;;;;4919079;29;20056;-85
2021/04/19 10:16:18;;;;;;;13.25;5.70;;;12.00;61.60;;;;;;4918846;29;20060;-85
2021/04/19 10:18:48;;;;;;;10.15;5.03;;;12.00;63.40;;;;;;4918659;29;20070;-85
2021/04/19 10:21:23;;;;;;;12.63;5.20;;;12.00;62.30;;;;;;4918564;29;20088;-86
2021/04/19 10:23:50;;;;;;;12.55;5.15;;;12.00;61.30;;;;;;4918781;29;20473;-85
2021/04/19 10:26:16;;;;;;;10.52;5.10;;;12.00;57.60;;;;;;4918649;29;20052;-83
2021/04/19 10:28:44;;;;;;;10.85;6.15;;;12.10;59.40;;;;;;4918341;29;20056;-85
2021/04/19 10:31:14;;;;;;;10.73;5.22;;;12.10;57.10;;;;;;4918529;29;20060;-85
2021/04/19 10:33:42;;;;;;;9.93;5.15;;;12.20;58.50;;;;;;4918490;29;20139;-85
2021/04/19 10:36:20;;;;;;;8.73;5.28;;;12.10;59.80;;;;;;4918638;29;20052;-85
2021/04/19 10:38:47;;;;;;;11.45;5.07;;;12.00;59.90;;;;;;4918499;29;20048;-85
2021/04/19 10:41:14;;;;;;;13.80;6.10;;;12.00;60.50;;;;;;4918334;29;20462;-85
2021/04/19 10:43:41;;;;;;;10.50;4.65;;;12.10;61.80;;;;;;4918396;29;20400;-86
2021/04/19 10:46:21;;;;;;;9.68;4.85;;;12.10;62.10;;;;;;4918716;29;20112;-85
2021/04/19 10:48:49;;;;;;;6.82;4.20;;;12.20;59.30;;;;;;4918523;29;20056;-85
2021/04/19 10:51:17;;;;;;;12.82;5.88;;;12.30;60.80;;;;;;4918227;29;20106;-83
2021/04/19 10:53:43;;;;;;;13.00;4.88;;;12.20;60.50;;;;;;4918472;29;20455;-85
2021/04/19 10:56:10;;;;;;;11.07;5.05;;;12.30;59.30;;;;;;4918178;29;20133;-86
2021/04/19 10:58:37;;;;;;;14.52;5.35;;;12.30;62.10;;;;;;4918047;29;20044;-86
2021/04/19 11:01:04;;;;;;;11.32;4.32;;;12.30;60.50;;;;;;4917825;29;20066;-86
2021/04/19 11:03:35;;;;;;;8.25;4.60;;;12.30;60.60;;;;;;4917996;29;20139;-86
2021/04/19 11:06:03;;;;;;;9.25;4.93;;;12.40;59.20;;;;;;4917991;29;20377;-86
2021/04/19 11:08:49;;;;;;;8.63;5.05;;;12.30;60.60;;;;;;4917915;29;20056;-85
2021/04/19 11:11:33;;;;;;;10.95;5.78;;;12.50;59.10;;;;;;4917948;29;20048;-85
2021/04/19 11:14:14;;;;;;;14.82;5.35;;;12.50;59.90;;;;;;4917389;29;20048;-82
2021/04/19 11:16:54;;;;;;;7.30;4.47;;;12.60;61.90;;;;;;4918118;29;20048;-84
2021/04/19 11:19:41;;;;;;;11.38;5.03;;;12.60;60.20;;;;;;4918427;29;20052;-84
2021/04/19 11:22:26;;;;;;;10.07;4.40;;;12.70;60.50;;;;;;4918136;29;20052;-81
2021/04/19 11:24:53;;;;;;;11.13;5.82;;;12.70;58.80;;;;;;4918061;29;20131;-84
2021/04/19 11:27:23;;;;;;;8.52;5.32;;;12.80;58.50;;;;;;4917919;29;20442;-88
2021/04/19 11:29:50;;;;;;;7.05;4.63;;;12.80;60.30;;;;;;4917948;29;20063;-88
2021/04/19 11:32:31;;;;;;;10.73;5.53;;;12.90;57.90;;;;;;4918208;29;20381;-88
2021/04/19 11:34:58;;;;;;;12.05;6.10;;;13.00;56.70;;;;;;4917904;29;20048;-80
2021/04/19 11:37:34;;;;;;;10.55;5.57;;;13.00;56.90;;;;;;4917807;29;20060;-86
2021/04/19 11:40:00;;;;;;;11.05;5.47;;;13.10;54.70;;;;;;4917902;29;20111;-84
2021/04/19 11:42:28;;;;;;;11.70;5.55;;;13.00;56.50;;;;;;4917993;29;20422;-86
2021/04/19 11:44:55;;;;;;;8.35;4.95;;;13.00;55.70;;;;;;4920981;29;20504;-85
2021/04/19 11:47:21;;;;;;;10.75;5.13;;;13.00;56.30;;;;;;4921258;29;20060;-82
2021/04/19 11:49:52;;;;;;;10.98;5.72;;;12.90;57.90;;;;;;4921373;29;20518;-88
2021/04/19 11:52:19;;;;;;;11.10;5.75;;;12.90;58.70;;;;;;4921239;29;20055;-83
2021/04/19 11:54:46;;;;;;;10.15;5.82;;;12.80;59.10;;;;;;4921068;29;20056;-88
2021/04/19 11:57:13;;;;;;;10.90;5.68;;;12.90;57.20;;;;;;4921129;29;20115;-85
2021/04/19 11:59:40;;;;;;;6.22;4.60;;;12.90;58.20;;;;;;4920928;29;20066;-85
2021/04/19 12:02:07;;;;;;;8.30;4.65;;;12.80;56.10;;;;;;4920803;29;20056;-85
2021/04/19 12:04:34;;;;;;;9.57;4.32;;;12.80;57.60;;;;;;4920994;29;20052;-83
2021/04/19 12:07:01;;;;;;;7.85;4.68;;;12.80;57.00;;;;;;4920628;29;20461;-85
2021/04/19 12:09:28;;;;;;;7.78;4.47;;;12.80;57.30;;;;;;4920594;29;20359;-85
2021/04/19 12:11:55;;;;;;;8.00;4.53;;;12.90;56.80;;;;;;4920541;29;20056;-84
2021/04/19 12:14:22;;;;;;;6.57;4.05;;;13.00;58.40;;;;;;4920852;29;20052;-78
2021/04/19 12:16:48;;;;;;;7.03;3.53;;;13.10;58.50;;;;;;4920443;29;20048;-78
2021/04/19 12:19:15;;;;;;;8.40;4.47;;;13.20;57.90;;;;;;4920568;29;20464;-79
2021/04/19 12:21:41;;;;;;;8.00;4.47;;;13.30;56.80;;;;;;4920634;29;20052;-80
2021/04/19 12:24:08;;;;;;;7.70;4.55;;;13.30;56.50;;;;;;4920494;29;20052;-77
2021/04/19 12:26:35;;;;;;;9.45;4.78;;;13.30;56.90;;;;;;4920368;29;20066;-77
2021/04/19 12:29:03;;;;;;;7.97;4.38;;;13.20;58.00;;;;;;4920573;29;20377;-80
2021/04/19 12:31:30;;;;;;;8.65;4.50;;;13.20;58.60;;;;;;4920329;29;20059;-78
2021/04/19 12:33:56;;;;;;;11.60;5.28;;;13.10;57.20;;;;;;4920443;29;20397;-80
2021/04/19 12:36:23;;;;;;;8.60;5.20;;;13.00;56.30;;;;;;4920664;29;20058;-78
2021/04/19 12:38:49;;;;;;;11.13;4.57;;;13.00;56.60;;;;;;4920300;29;20044;-77
2021/04/19 12:41:16;;;;;;;7.95;4.03;;;13.10;57.60;;;;;;4920500;29;20056;-80
2021/04/19 12:43:42;;;;;;;6.88;3.95;;;13.20;57.20;;;;;;4920239;29;20048;-80
2021/04/19 12:46:10;;;;;;;8.40;3.75;;;13.30;57.00;;;;;;4920397;29;20083;-80
2021/04/19 12:48:37;;;;;;;13.40;4.28;;;13.50;56.40;;;;;;4919832;29;20062;-80
2021/04/19 12:51:03;;;;;;;6.18;3.67;;;13.60;56.60;;;;;;4920005;29;20430;-80
2021/04/19 12:53:30;;;;;;;10.52;4.93;;;13.60;55.00;;;;;;4920185;29;20052;-80
2021/04/19 12:55:56;;;;;;;12.02;4.43;;;13.70;54.80;;;;;;4919281;29;20477;-80
2021/04/19 12:58:23;;;;;;;8.10;4.07;;;13.70;55.90;;;;;;4918949;29;20381;-78
2021/04/19 13:00:50;;;;;;;7.60;4.38;;;13.80;55.30;;;;;;4919814;29;20048;-77
2021/04/19 13:03:17;;;;;;;6.18;3.78;;;13.80;56.40;;;;;;4919778;29;20055;-79
2021/04/19 13:05:44;;;;;;;9.43;4.47;;;13.80;56.90;;;;;;4920085;29;20052;-79
2021/04/19 13:08:10;;;;;;;9.52;4.25;;;13.70;55.40;;;;;;4919876;29;20056;-79
2021/04/19 13:10:38;;;;;;;8.63;4.45;;;13.80;54.50;;;;;;4919896;29;20066;-80
2021/04/19 13:13:05;;;;;;;10.35;5.57;;;13.70;55.20;;;;;;4919778;29;20056;-80
2021/04/19 13:15:32;;;;;;;10.20;4.57;;;13.70;56.30;;;;;;4920055;29;20096;-79
2021/04/19 13:17:58;;;;;;;9.70;3.65;;;13.70;56.10;;;;;;4919563;29;20406;-79
2021/04/19 13:20:27;;;;;;;11.23;4.50;;;13.70;56.70;;;;;;4919554;29;20070;-80
2021/04/19 13:22:54;;;;;;;9.25;4.25;;;13.80;58.00;;;;;;4919409;29;20195;-80
2021/04/19 13:25:21;;;;;;;7.72;4.18;;;13.80;57.30;;;;;;4919331;29;20048;-78
2021/04/19 13:27:47;;;;;;;6.47;4.15;;;14.00;56.80;;;;;;4919534;29;20048;-79
2021/04/19 13:30:15;;;;;;;6.55;3.63;;;14.10;56.30;;;;;;4919563;29;20189;-79
2021/04/19 13:32:41;;;;;;;8.52;4.07;;;14.10;56.30;;;;;;4919277;29;20048;-79
2021/04/19 13:35:09;;;;;;;8.60;4.75;;;14.00;56.40;;;;;;4919175;29;20196;-79
2021/04/19 13:37:37;;;;;;;7.43;3.97;;;14.00;55.70;;;;;;4919057;29;20052;-79
2021/04/19 13:40:07;;;;;;;8.52;4.32;;;14.00;55.80;;;;;;4919269;29;20090;-79
2021/04/19 13:42:33;;;;;;;8.15;4.10;;;14.10;54.90;;;;;;4918992;29;20075;-79
2021/04/19 13:45:00;;;;;;;8.45;3.88;;;14.20;55.30;;;;;;4919201;29;20203;-79
2021/04/19 13:47:26;;;;;;;10.35;4.95;;;14.30;55.70;;;;;;4919121;29;20052;-79
2021/04/19 13:49:53;;;;;;;9.05;3.67;;;14.30;54.40;;;;;;4918885;29;20107;-83
2021/04/19 13:52:19;;;;;;;7.28;3.65;;;14.30;55.00;;;;;;4918817;29;20056;-84
2021/04/19 13:54:48;;;;;;;9.38;4.50;;;14.30;55.30;;;;;;4919132;29;20075;-83
2021/04/19 13:57:15;;;;;;;11.90;7.28;;;14.30;56.00;;;;;;4918622;29;20131;-83
2021/04/19 13:59:42;;;;;;;8.02;3.85;;;14.30;55.40;;;;;;4919047;29;20108;-83
2021/04/19 14:02:11;;;;;;;10.70;3.95;;;14.30;56.20;;;;;;4918887;29;20056;-84
2021/04/19 14:04:38;;;;;;;7.90;3.90;;;14.30;57.10;;;;;;4918931;29;20062;-83
2021/04/19 14:07:04;;;;;;;9.70;4.07;;;14.40;56.70;;;;;;4918079;29;20468;-83
2021/04/19 14:09:31;;;;;;;8.02;4.30;;;14.40;55.50;;;;;;4918706;29;20074;-84
2021/04/19 14:11:59;;;;;;;6.18;3.40;;;14.50;55.90;;;;;;4918839;29;20060;-83
2021/04/19 14:14:25;;;;;;;6.05;4.40;;;14.40;56.20;;;;;;4918885;29;20062;-83
2021/04/19 14:16:52;;;;;;;9.45;5.47;;;14.40;56.00;;;;;;4918593;29;20060;-84
2021/04/19 14:19:18;;;;;;;8.00;4.22;;;14.40;57.00;;;;;;4918533;29;20059;-83
2021/04/19 14:21:45;;;;;;;8.00;4.32;;;14.50;56.80;;;;;;4918218;29;20460;-83
2021/04/19 14:24:11;;;;;;;11.25;4.82;;;14.50;55.80;;;;;;4917928;29;20151;-79
2021/04/19 14:26:38;;;;;;;9.50;4.55;;;14.50;55.50;;;;;;4918397;29;20063;-87
2021/04/19 14:29:07;;;;;;;8.90;3.65;;;14.50;56.80;;;;;;4918678;29;20430;-86
2021/04/19 14:31:33;;;;;;;10.55;4.68;;;14.50;56.50;;;;;;4918665;29;20056;-82
2021/04/19 14:34:00;;;;;;;7.05;4.05;;;14.50;57.30;;;;;;4918839;29;20060;-83
2021/04/19 14:36:27;;;;;;;15.30;4.57;;;14.40;56.80;;;;;;4918310;29;20051;-86
2021/04/19 14:38:54;;;;;;;13.82;5.03;;;14.40;57.10;;;;;;4918682;29;20094;-86
2021/04/19 14:41:21;;;;;;;17.48;7.65;;;14.40;57.50;;;;;;4918134;29;20062;-85
2021/04/19 14:43:48;;;;;;;13.60;5.68;;;14.40;56.80;;;;;;4918367;29;20052;-86
2021/04/19 14:46:15;;;;;;;10.50;4.97;;;14.50;57.10;;;;;;4918485;29;20075;-86
2021/04/19 14:48:42;;;;;;;6.88;4.13;;;14.50;58.20;;;;;;4918251;29;20063;-86
2021/04/19 14:51:08;;;;;;;9.88;4.63;;;14.50;58.10;;;;;;4918189;29;20058;-86
2021/04/19 14:53:35;;;;;;;7.70;4.78;;;14.60;58.30;;;;;;4918214;29;20389;-86
2021/04/19 14:56:02;;;;;;;13.63;5.07;;;14.50;58.10;;;;;;4918220;29;20066;-86
2021/04/19 14:58:29;;;;;;;8.13;4.88;;;14.50;57.50;;;;;;4918457;29;20425;-86
2021/04/19 15:00:55;;;;;;;8.55;4.47;;;14.50;57.20;;;;;;4918181;29;20062;-86
2021/04/19 15:03:23;;;;;;;8.80;4.68;;;14.50;56.60;;;;;;4918205;29;20063;-86
2021/04/19 15:05:50;;;;;;;9.68;4.47;;;14.50;58.70;;;;;;4917713;29;20056;-87
2021/04/19 15:08:16;;;;;;;10.00;4.18;;;14.50;57.90;;;;;;4918580;29;20058;-86
2021/04/19 15:10:43;;;;;;;8.13;5.15;;;14.50;57.70;;;;;;4918348;29;20108;-82
2021/04/19 15:13:09;;;;;;;10.45;4.55;;;14.60;58.10;;;;;;4918236;29;20051;-86
2021/04/19 15:15:36;;;;;;;12.18;4.00;;;14.70;58.10;;;;;;4918273;29;20405;-86
2021/04/19 15:18:03;;;;;;;10.82;6.30;;;14.70;56.80;;;;;;4919148;29;20107;-86
2021/04/19 15:20:30;;;;;;;11.48;4.80;;;14.80;57.20;;;;;;4921048;29;20052;-86
2021/04/19 15:22:57;;;;;;;13.38;4.43;;;14.80;56.90;;;;;;4921637;29;20484;-87
2021/04/19 15:25:23;;;;;;;9.40;4.57;;;14.80;57.10;;;;;;4921719;29;20051;-87
2021/04/19 15:27:50;;;;;;;9.25;4.35;;;14.80;56.60;;;;;;4921534;29;20043;-86
2021/04/19 15:30:18;;;;;;;13.93;4.82;;;14.80;56.20;;;;;;4921160;29;20115;-85
2021/04/19 15:32:44;;;;;;;10.55;5.55;;;14.70;56.20;;;;;;4922003;29;20080;-86
2021/04/19 15:35:12;;;;;;;12.07;4.97;;;14.70;56.90;;;;;;4921778;29;20052;-87
2021/04/19 15:37:39;;;;;;;10.05;4.90;;;14.70;56.20;;;;;;4921827;29;20371;-86
2021/04/19 15:40:07;;;;;;;7.93;4.22;;;14.60;55.60;;;;;;4921393;29;20107;-86
2021/04/19 15:42:34;;;;;;;8.32;3.83;;;14.60;55.70;;;;;;4921278;29;20434;-86
2021/04/19 15:45:00;;;;;;;9.38;4.45;;;14.60;55.60;;;;;;4921273;29;20425;-86
2021/04/19 15:47:28;;;;;;;9.15;5.97;;;14.70;55.90;;;;;;4921175;29;20048;-87
2021/04/19 15:49:54;;;;;;;9.25;4.63;;;14.70;56.10;;;;;;4921236;29;20513;-87
2021/04/19 15:52:21;;;;;;;9.25;4.82;;;14.70;56.70;;;;;;4921637;29;20087;-86
2021/04/19 15:54:49;;;;;;;8.60;4.60;;;14.70;56.60;;;;;;4921144;29;20436;-87
2021/04/19 15:57:15;;;;;;;12.75;4.10;;;14.80;56.80;;;;;;4921112;29;20056;-87
2021/04/19 15:59:42;;;;;;;15.05;5.07;;;14.70;56.70;;;;;;4921067;29;20458;-87
2021/04/19 16:02:08;;;;;;;7.95;4.45;;;14.70;56.70;;;;;;4920987;29;20127;-87
2021/04/19 16:04:35;;;;;;;10.48;4.70;;;14.70;56.50;;;;;;4921033;29;20060;-87
2021/04/19 16:07:02;;;;;;;8.13;4.20;;;14.70;54.30;;;;;;4920497;29;20056;-86
2021/04/19 16:09:29;;;;;;;11.13;4.50;;;14.70;55.70;;;;;;4920729;29;20052;-78
2021/04/19 16:11:57;;;;;;;7.57;4.90;;;14.70;56.80;;;;;;4920917;29;20449;-78
2021/04/19 16:14:24;;;;;;;7.35;4.53;;;14.70;56.30;;;;;;4920687;29;20402;-79
2021/04/19 16:16:51;;;;;;;11.60;4.35;;;14.70;55.90;;;;;;4920310;29;20068;-79
2021/04/19 16:19:22;;;;;;;8.05;4.80;;;14.60;56.50;;;;;;4920388;29;20160;-79
2021/04/19 16:21:49;;;;;;;7.10;4.38;;;14.50;56.90;;;;;;4909482;29;20063;-80
2021/04/19 16:24:15;;;;;;;7.78;4.82;;;14.40;58.50;;;;;;4901484;29;20069;-80
2021/04/19 16:26:42;;;;;;;9.68;4.75;;;14.40;57.20;;;;;;4901679;29;20052;-80
2021/04/19 16:29:09;;;;;;;12.45;5.13;;;14.40;57.40;;;;;;4901270;29;20381;-79
2021/04/19 16:31:36;;;;;;;10.57;5.82;;;14.40;57.40;;;;;;4900150;29;20056;-80
2021/04/19 16:34:03;;;;;;;14.82;5.20;;;14.40;59.00;;;;;;4901765;29;20103;-80
2021/04/19 16:36:29;;;;;;;10.60;5.80;;;14.40;58.00;;;;;;4901408;29;20056;-79
2021/04/19 16:38:56;;;;;;;8.85;5.15;;;14.30;57.90;;;;;;4901665;29;20048;-80
2021/04/19 16:41:22;;;;;;;10.35;4.82;;;14.30;57.70;;;;;;4900444;29;20123;-80